sensor_id;sensor_type;location;lat;lon;timestamp;pressure;altitude;pressure_sealevel;temperature
29701;BMP280;57917;51.380;-0.176;2022-07-04T00:02:21;101788.78;;;18.35
29701;BMP280;57917;51.380;-0.176;2022-07-04T00:08:08;101792.31;;;18.09
29701;BMP280;57917;51.380;-0.176;2022-07-04T00:13:57;101797.78;;;18.04
29701;BMP280;57917;51.380;-0.176;2022-07-04T00:19:44;101805.34;;;18.02
29701;BMP280;57917;51.380;-0.176;2022-07-04T00:25:31;101809.69;;;17.84
29701;BMP280;57917;51.380;-0.176;2022-07-04T00:31:18;101813.78;;;17.82
29701;BMP280;57917;51.380;-0.176;2022-07-04T00:37:06;101815.25;;;17.61
29701;BMP280;57917;51.380;-0.176;2022-07-04T00:43:00;101813.44;;;17.43
29701;BMP280;57917;51.380;-0.176;2022-07-04T00:48:46;101820.38;;;17.30
29701;BMP280;57917;51.380;-0.176;2022-07-04T00:54:36;101823.34;;;17.29
29701;BMP280;57917;51.380;-0.176;2022-07-04T01:00:23;101809.06;;;17.33
29701;BMP280;57917;51.380;-0.176;2022-07-04T01:06:10;101804.22;;;17.03
29701;BMP280;57917;51.380;-0.176;2022-07-04T01:11:58;101790.66;;;17.00
29701;BMP280;57917;51.380;-0.176;2022-07-04T01:17:45;101801.91;;;16.97
29701;BMP280;57917;51.380;-0.176;2022-07-04T01:23:41;101817.63;;;16.85
29701;BMP280;57917;51.380;-0.176;2022-07-04T01:29:32;101815.41;;;16.73
29701;BMP280;57917;51.380;-0.176;2022-07-04T01:35:23;101814.75;;;16.63
29701;BMP280;57917;51.380;-0.176;2022-07-04T01:41:13;101799.88;;;16.57
29701;BMP280;57917;51.380;-0.176;2022-07-04T01:47:04;101802.78;;;16.36
29701;BMP280;57917;51.380;-0.176;2022-07-04T01:52:52;101789.56;;;16.26
29701;BMP280;57917;51.380;-0.176;2022-07-04T01:58:39;101786.41;;;16.24
29701;BMP280;57917;51.380;-0.176;2022-07-04T02:04:26;101775.94;;;16.28
29701;BMP280;57917;51.380;-0.176;2022-07-04T02:10:14;101771.47;;;16.23
29701;BMP280;57917;51.380;-0.176;2022-07-04T02:16:05;101775.47;;;16.02
29701;BMP280;57917;51.380;-0.176;2022-07-04T02:21:57;101770.94;;;15.79
29701;BMP280;57917;51.380;-0.176;2022-07-04T02:27:45;101776.97;;;15.66
29701;BMP280;57917;51.380;-0.176;2022-07-04T02:33:32;101769.41;;;15.73
29701;BMP280;57917;51.380;-0.176;2022-07-04T02:39:19;101766.25;;;15.71
29701;BMP280;57917;51.380;-0.176;2022-07-04T02:45:06;101780.94;;;15.40
29701;BMP280;57917;51.380;-0.176;2022-07-04T02:50:55;101779.41;;;15.34
29701;BMP280;57917;51.380;-0.176;2022-07-04T02:56:55;101777.19;;;15.41
29701;BMP280;57917;51.380;-0.176;2022-07-04T03:02:44;101781.72;;;15.17
29701;BMP280;57917;51.380;-0.176;2022-07-04T03:08:33;101792.88;;;15.19
29701;BMP280;57917;51.380;-0.176;2022-07-04T03:14:20;101773.19;;;15.15
29701;BMP280;57917;51.380;-0.176;2022-07-04T03:20:07;101776.84;;;14.91
29701;BMP280;57917;51.380;-0.176;2022-07-04T03:25:58;101789.81;;;15.02
29701;BMP280;57917;51.380;-0.176;2022-07-04T03:31:47;101788.22;;;15.01
29701;BMP280;57917;51.380;-0.176;2022-07-04T03:37:34;101793.59;;;14.96
29701;BMP280;57917;51.380;-0.176;2022-07-04T03:43:21;101788.25;;;14.96
29701;BMP280;57917;51.380;-0.176;2022-07-04T03:49:08;101791.47;;;14.93
29701;BMP280;57917;51.380;-0.176;2022-07-04T03:54:55;101798.78;;;14.73
29701;BMP280;57917;51.380;-0.176;2022-07-04T04:00:42;101811.81;;;14.79
29701;BMP280;57917;51.380;-0.176;2022-07-04T04:06:31;101819.88;;;14.74
29701;BMP280;57917;51.380;-0.176;2022-07-04T04:12:21;101832.25;;;14.55
29701;BMP280;57917;51.380;-0.176;2022-07-04T04:18:08;101825.50;;;14.68
29701;BMP280;57917;51.380;-0.176;2022-07-04T04:23:57;101834.25;;;14.68
29701;BMP280;57917;51.380;-0.176;2022-07-04T04:29:44;101847.06;;;14.71
29701;BMP280;57917;51.380;-0.176;2022-07-04T04:35:40;101846.53;;;14.74
29701;BMP280;57917;51.380;-0.176;2022-07-04T04:41:29;101857.97;;;14.75
29701;BMP280;57917;51.380;-0.176;2022-07-04T04:47:19;101862.66;;;15.36
29701;BMP280;57917;51.380;-0.176;2022-07-04T04:53:10;101859.00;;;16.74
29701;BMP280;57917;51.380;-0.176;2022-07-04T04:58:58;101851.22;;;16.54
29701;BMP280;57917;51.380;-0.176;2022-07-04T05:04:46;101855.91;;;16.01
29701;BMP280;57917;51.380;-0.176;2022-07-04T05:10:37;101867.38;;;15.73
29701;BMP280;57917;51.380;-0.176;2022-07-04T05:16:29;101870.97;;;15.63
29701;BMP280;57917;51.380;-0.176;2022-07-04T05:22:17;101870.97;;;15.63
29701;BMP280;57917;51.380;-0.176;2022-07-04T05:28:04;101864.00;;;15.91
29701;BMP280;57917;51.380;-0.176;2022-07-04T05:33:53;101850.19;;;16.31
29701;BMP280;57917;51.380;-0.176;2022-07-04T05:39:44;101847.81;;;16.06
29701;BMP280;57917;51.380;-0.176;2022-07-04T05:45:31;101857.75;;;16.24
29701;BMP280;57917;51.380;-0.176;2022-07-04T05:51:18;101865.41;;;16.30
29701;BMP280;57917;51.380;-0.176;2022-07-04T05:57:05;101860.16;;;16.25
29701;BMP280;57917;51.380;-0.176;2022-07-04T06:02:52;101855.22;;;16.14
29701;BMP280;57917;51.380;-0.176;2022-07-04T06:08:39;101853.53;;;16.42
29701;BMP280;57917;51.380;-0.176;2022-07-04T06:14:32;101848.56;;;16.54
29701;BMP280;57917;51.380;-0.176;2022-07-04T06:20:25;101862.59;;;16.46
29701;BMP280;57917;51.380;-0.176;2022-07-04T06:26:39;101864.09;;;16.52
29701;BMP280;57917;51.380;-0.176;2022-07-04T06:32:47;101860.00;;;16.78
29701;BMP280;57917;51.380;-0.176;2022-07-04T06:38:35;101860.91;;;16.87
29701;BMP280;57917;51.380;-0.176;2022-07-04T06:44:26;101851.19;;;16.96
29701;BMP280;57917;51.380;-0.176;2022-07-04T06:50:16;101839.81;;;17.04
29701;BMP280;57917;51.380;-0.176;2022-07-04T06:56:28;101835.28;;;17.18
29701;BMP280;57917;51.380;-0.176;2022-07-04T07:02:24;101836.78;;;17.24
29701;BMP280;57917;51.380;-0.176;2022-07-04T07:08:11;101837.59;;;17.24
29701;BMP280;57917;51.380;-0.176;2022-07-04T07:14:03;101833.78;;;17.12
29701;BMP280;57917;51.380;-0.176;2022-07-04T07:19:50;101836.53;;;17.25
29701;BMP280;57917;51.380;-0.176;2022-07-04T07:25:44;101843.81;;;17.52
29701;BMP280;57917;51.380;-0.176;2022-07-04T07:31:31;101845.00;;;17.59
29701;BMP280;57917;51.380;-0.176;2022-07-04T07:37:23;101846.28;;;17.62
29701;BMP280;57917;51.380;-0.176;2022-07-04T07:43:10;101845.53;;;17.75
29701;BMP280;57917;51.380;-0.176;2022-07-04T07:49:01;101832.31;;;18.05
29701;BMP280;57917;51.380;-0.176;2022-07-04T07:54:50;101844.84;;;18.81
29701;BMP280;57917;51.380;-0.176;2022-07-04T08:00:46;101841.31;;;19.55
29701;BMP280;57917;51.380;-0.176;2022-07-04T08:06:41;101831.19;;;20.08
29701;BMP280;57917;51.380;-0.176;2022-07-04T08:12:52;101837.22;;;20.56
29701;BMP280;57917;51.380;-0.176;2022-07-04T08:18:39;101827.75;;;20.67
29701;BMP280;57917;51.380;-0.176;2022-07-04T08:24:26;101829.50;;;21.84
29701;BMP280;57917;51.380;-0.176;2022-07-04T08:30:14;101826.19;;;22.41
29701;BMP280;57917;51.380;-0.176;2022-07-04T08:36:02;101823.66;;;23.01
29701;BMP280;57917;51.380;-0.176;2022-07-04T08:41:55;101834.69;;;23.68
29701;BMP280;57917;51.380;-0.176;2022-07-04T08:48:13;101824.66;;;24.08
29701;BMP280;57917;51.380;-0.176;2022-07-04T08:54:03;101823.41;;;23.66
29701;BMP280;57917;51.380;-0.176;2022-07-04T09:00:11;101823.19;;;23.71
29701;BMP280;57917;51.380;-0.176;2022-07-04T09:05:59;101811.09;;;23.80
29701;BMP280;57917;51.380;-0.176;2022-07-04T09:11:46;101807.56;;;23.52
29701;BMP280;57917;51.380;-0.176;2022-07-04T09:17:33;101814.19;;;23.67
29701;BMP280;57917;51.380;-0.176;2022-07-04T09:23:23;101803.50;;;23.98
29701;BMP280;57917;51.380;-0.176;2022-07-04T09:29:11;101812.66;;;23.93
29701;BMP280;57917;51.380;-0.176;2022-07-04T09:35:06;101812.84;;;24.55
29701;BMP280;57917;51.380;-0.176;2022-07-04T09:41:02;101815.06;;;24.38
29701;BMP280;57917;51.380;-0.176;2022-07-04T09:47:27;101821.31;;;23.99
29701;BMP280;57917;51.380;-0.176;2022-07-04T09:53:27;101818.25;;;24.00
29701;BMP280;57917;51.380;-0.176;2022-07-04T09:59:14;101817.59;;;24.31
29701;BMP280;57917;51.380;-0.176;2022-07-04T10:05:07;101802.34;;;24.69
29701;BMP280;57917;51.380;-0.176;2022-07-04T10:11:00;101801.78;;;24.33
29701;BMP280;57917;51.380;-0.176;2022-07-04T10:16:54;101809.00;;;24.01
29701;BMP280;57917;51.380;-0.176;2022-07-04T10:22:44;101797.19;;;24.49
29701;BMP280;57917;51.380;-0.176;2022-07-04T10:28:37;101810.34;;;25.28
29701;BMP280;57917;51.380;-0.176;2022-07-04T10:34:24;101789.94;;;24.99
29701;BMP280;57917;51.380;-0.176;2022-07-04T10:40:40;101795.66;;;25.48
29701;BMP280;57917;51.380;-0.176;2022-07-04T10:46:36;101798.50;;;26.31
29701;BMP280;57917;51.380;-0.176;2022-07-04T10:52:24;101786.91;;;27.05
29701;BMP280;57917;51.380;-0.176;2022-07-04T10:58:38;101782.28;;;27.09
29701;BMP280;57917;51.380;-0.176;2022-07-04T11:04:46;101788.78;;;26.75
29701;BMP280;57917;51.380;-0.176;2022-07-04T11:10:39;101765.88;;;27.02
29701;BMP280;57917;51.380;-0.176;2022-07-04T11:16:52;101774.81;;;27.32
29701;BMP280;57917;51.380;-0.176;2022-07-04T11:22:40;101756.63;;;27.69
29701;BMP280;57917;51.380;-0.176;2022-07-04T11:28:30;101773.13;;;26.68
29701;BMP280;57917;51.380;-0.176;2022-07-04T11:34:32;101767.78;;;26.27
29701;BMP280;57917;51.380;-0.176;2022-07-04T11:40:22;101772.84;;;26.51
29701;BMP280;57917;51.380;-0.176;2022-07-04T11:46:27;101770.28;;;26.84
29701;BMP280;57917;51.380;-0.176;2022-07-04T11:52:21;101772.25;;;27.13
29701;BMP280;57917;51.380;-0.176;2022-07-04T11:58:38;101764.50;;;27.15
29701;BMP280;57917;51.380;-0.176;2022-07-04T12:04:26;101756.94;;;27.64
29701;BMP280;57917;51.380;-0.176;2022-07-04T12:10:15;101764.38;;;25.88
29701;BMP280;57917;51.380;-0.176;2022-07-04T12:16:10;101760.16;;;25.91
29701;BMP280;57917;51.380;-0.176;2022-07-04T12:21:57;101759.53;;;25.59
29701;BMP280;57917;51.380;-0.176;2022-07-04T12:27:51;101757.78;;;25.17
29701;BMP280;57917;51.380;-0.176;2022-07-04T12:33:54;101756.19;;;24.81
29701;BMP280;57917;51.380;-0.176;2022-07-04T12:39:44;101748.78;;;24.63
29701;BMP280;57917;51.380;-0.176;2022-07-04T12:45:52;101754.06;;;24.56
29701;BMP280;57917;51.380;-0.176;2022-07-04T12:51:43;101757.06;;;25.16
29701;BMP280;57917;51.380;-0.176;2022-07-04T12:57:34;101763.34;;;25.58
29701;BMP280;57917;51.380;-0.176;2022-07-04T13:03:28;101744.88;;;25.10
29701;BMP280;57917;51.380;-0.176;2022-07-04T13:09:17;101743.44;;;25.32
29701;BMP280;57917;51.380;-0.176;2022-07-04T13:15:07;101745.28;;;25.47
29701;BMP280;57917;51.380;-0.176;2022-07-04T13:20:58;101749.63;;;24.36
29701;BMP280;57917;51.380;-0.176;2022-07-04T13:26:47;101748.00;;;24.47
29701;BMP280;57917;51.380;-0.176;2022-07-04T13:32:35;101748.75;;;25.09
29701;BMP280;57917;51.380;-0.176;2022-07-04T13:38:23;101753.00;;;24.76
29701;BMP280;57917;51.380;-0.176;2022-07-04T13:44:14;101755.88;;;24.83
29701;BMP280;57917;51.380;-0.176;2022-07-04T13:50:03;101750.53;;;25.21
29701;BMP280;57917;51.380;-0.176;2022-07-04T13:55:52;101738.19;;;24.42
29701;BMP280;57917;51.380;-0.176;2022-07-04T14:01:41;101758.34;;;24.72
29701;BMP280;57917;51.380;-0.176;2022-07-04T14:07:29;101754.25;;;25.13
29701;BMP280;57917;51.380;-0.176;2022-07-04T14:13:22;101762.06;;;24.99
29701;BMP280;57917;51.380;-0.176;2022-07-04T14:19:10;101751.09;;;23.75
29701;BMP280;57917;51.380;-0.176;2022-07-04T14:24:57;101747.44;;;24.10
29701;BMP280;57917;51.380;-0.176;2022-07-04T14:30:49;101752.78;;;23.95
29701;BMP280;57917;51.380;-0.176;2022-07-04T14:36:40;101752.69;;;23.91
29701;BMP280;57917;51.380;-0.176;2022-07-04T14:42:38;101752.16;;;24.13
29701;BMP280;57917;51.380;-0.176;2022-07-04T14:48:28;101770.13;;;23.66
29701;BMP280;57917;51.380;-0.176;2022-07-04T14:54:17;101757.00;;;23.41
29701;BMP280;57917;51.380;-0.176;2022-07-04T15:00:08;101762.09;;;23.82
29701;BMP280;57917;51.380;-0.176;2022-07-04T15:05:56;101763.72;;;23.98
29701;BMP280;57917;51.380;-0.176;2022-07-04T15:11:45;101753.59;;;24.38
29701;BMP280;57917;51.380;-0.176;2022-07-04T15:17:34;101757.22;;;24.15
29701;BMP280;57917;51.380;-0.176;2022-07-04T15:23:23;101747.03;;;23.69
29701;BMP280;57917;51.380;-0.176;2022-07-04T15:29:33;101746.88;;;23.89
29701;BMP280;57917;51.380;-0.176;2022-07-04T15:35:25;101740.41;;;23.94
29701;BMP280;57917;51.380;-0.176;2022-07-04T15:41:16;101732.91;;;24.03
29701;BMP280;57917;51.380;-0.176;2022-07-04T15:47:06;101727.06;;;24.01
29701;BMP280;57917;51.380;-0.176;2022-07-04T15:52:56;101735.34;;;24.51
29701;BMP280;57917;51.380;-0.176;2022-07-04T15:58:44;101723.41;;;24.09
29701;BMP280;57917;51.380;-0.176;2022-07-04T16:04:33;101719.97;;;24.24
29701;BMP280;57917;51.380;-0.176;2022-07-04T16:10:20;101733.81;;;24.07
29701;BMP280;57917;51.380;-0.176;2022-07-04T16:16:14;101733.16;;;23.98
29701;BMP280;57917;51.380;-0.176;2022-07-04T16:22:04;101740.75;;;23.92
29701;BMP280;57917;51.380;-0.176;2022-07-04T16:27:53;101734.56;;;23.80
29701;BMP280;57917;51.380;-0.176;2022-07-04T16:33:40;101737.91;;;23.73
29701;BMP280;57917;51.380;-0.176;2022-07-04T16:39:30;101742.84;;;23.99
29701;BMP280;57917;51.380;-0.176;2022-07-04T16:45:17;101738.06;;;23.65
29701;BMP280;57917;51.380;-0.176;2022-07-04T16:51:04;101737.41;;;23.83
29701;BMP280;57917;51.380;-0.176;2022-07-04T16:56:52;101739.09;;;23.88
29701;BMP280;57917;51.380;-0.176;2022-07-04T17:02:40;101732.06;;;23.59
29701;BMP280;57917;51.380;-0.176;2022-07-04T17:08:27;101745.47;;;23.68
29701;BMP280;57917;51.380;-0.176;2022-07-04T17:14:16;101733.56;;;23.57
29701;BMP280;57917;51.380;-0.176;2022-07-04T17:20:04;101731.78;;;23.76
29701;BMP280;57917;51.380;-0.176;2022-07-04T17:25:51;101738.28;;;23.60
29701;BMP280;57917;51.380;-0.176;2022-07-04T17:31:45;101736.41;;;23.36
29701;BMP280;57917;51.380;-0.176;2022-07-04T17:38:05;101737.91;;;23.22
29701;BMP280;57917;51.380;-0.176;2022-07-04T17:44:36;101736.00;;;22.86
29701;BMP280;57917;51.380;-0.176;2022-07-04T17:51:08;101752.47;;;22.49
29701;BMP280;57917;51.380;-0.176;2022-07-04T17:57:11;101747.19;;;22.52
29701;BMP280;57917;51.380;-0.176;2022-07-04T18:03:56;101738.19;;;22.60
29701;BMP280;57917;51.380;-0.176;2022-07-04T18:10:23;101743.09;;;22.34
29701;BMP280;57917;51.380;-0.176;2022-07-04T18:16:18;101743.69;;;22.40
29701;BMP280;57917;51.380;-0.176;2022-07-04T18:22:16;101742.03;;;22.59
29701;BMP280;57917;51.380;-0.176;2022-07-04T18:28:04;101753.13;;;22.46
29701;BMP280;57917;51.380;-0.176;2022-07-04T18:33:51;101752.72;;;22.23
29701;BMP280;57917;51.380;-0.176;2022-07-04T18:40:39;101759.63;;;22.12
29701;BMP280;57917;51.380;-0.176;2022-07-04T18:47:00;101762.44;;;21.83
29701;BMP280;57917;51.380;-0.176;2022-07-04T18:52:48;101763.22;;;22.04
29701;BMP280;57917;51.380;-0.176;2022-07-04T18:58:43;101770.41;;;21.50
29701;BMP280;57917;51.380;-0.176;2022-07-04T19:04:31;101769.22;;;21.39
29701;BMP280;57917;51.380;-0.176;2022-07-04T19:10:21;101768.97;;;20.78
29701;BMP280;57917;51.380;-0.176;2022-07-04T19:16:17;101775.84;;;20.41
29701;BMP280;57917;51.380;-0.176;2022-07-04T20:32:03;101839.88;;;19.49
29701;BMP280;57917;51.380;-0.176;2022-07-04T20:38:33;101854.41;;;19.48
29701;BMP280;57917;51.380;-0.176;2022-07-04T20:44:35;101853.34;;;19.27
29701;BMP280;57917;51.380;-0.176;2022-07-04T20:50:24;101849.78;;;19.10
29701;BMP280;57917;51.380;-0.176;2022-07-04T20:56:41;101872.53;;;19.12
29701;BMP280;57917;51.380;-0.176;2022-07-04T21:02:28;101871.41;;;19.35
29701;BMP280;57917;51.380;-0.176;2022-07-04T21:08:27;101885.13;;;19.34
29701;BMP280;57917;51.380;-0.176;2022-07-04T21:14:19;101889.19;;;19.23
29701;BMP280;57917;51.380;-0.176;2022-07-04T21:20:09;101893.53;;;19.10
29701;BMP280;57917;51.380;-0.176;2022-07-04T21:26:33;101906.41;;;19.00
29701;BMP280;57917;51.380;-0.176;2022-07-04T21:32:23;101913.06;;;19.02
29701;BMP280;57917;51.380;-0.176;2022-07-04T21:38:11;101914.09;;;19.15
29701;BMP280;57917;51.380;-0.176;2022-07-04T21:43:58;101913.75;;;18.94
29701;BMP280;57917;51.380;-0.176;2022-07-04T21:49:46;101924.72;;;18.98
29701;BMP280;57917;51.380;-0.176;2022-07-04T21:55:33;101923.84;;;18.89
29701;BMP280;57917;51.380;-0.176;2022-07-04T22:01:23;101921.97;;;18.76
29701;BMP280;57917;51.380;-0.176;2022-07-04T22:07:12;101937.31;;;18.61
29701;BMP280;57917;51.380;-0.176;2022-07-04T22:13:09;101941.69;;;18.57
29701;BMP280;57917;51.380;-0.176;2022-07-04T22:19:08;101934.97;;;18.33
29701;BMP280;57917;51.380;-0.176;2022-07-04T22:24:58;101938.63;;;18.37
29701;BMP280;57917;51.380;-0.176;2022-07-04T22:30:45;101938.94;;;18.35
29701;BMP280;57917;51.380;-0.176;2022-07-04T22:36:34;101945.06;;;18.36
29701;BMP280;57917;51.380;-0.176;2022-07-04T22:42:21;101952.63;;;18.07
29701;BMP280;57917;51.380;-0.176;2022-07-04T22:48:08;101960.53;;;17.85
29701;BMP280;57917;51.380;-0.176;2022-07-04T22:53:55;101964.41;;;17.92
29701;BMP280;57917;51.380;-0.176;2022-07-04T23:00:09;101972.31;;;17.84
29701;BMP280;57917;51.380;-0.176;2022-07-04T23:05:57;101973.38;;;17.69
29701;BMP280;57917;51.380;-0.176;2022-07-04T23:11:44;101981.44;;;17.51
29701;BMP280;57917;51.380;-0.176;2022-07-04T23:17:33;101989.34;;;17.42
29701;BMP280;57917;51.380;-0.176;2022-07-04T23:23:19;101995.94;;;17.50
29701;BMP280;57917;51.380;-0.176;2022-07-04T23:29:06;101998.03;;;17.34
29701;BMP280;57917;51.380;-0.176;2022-07-04T23:34:55;102002.69;;;17.29
29701;BMP280;57917;51.380;-0.176;2022-07-04T23:40:44;101999.13;;;17.15
29701;BMP280;57917;51.380;-0.176;2022-07-04T23:46:33;102002.88;;;17.14
29701;BMP280;57917;51.380;-0.176;2022-07-04T23:52:21;101998.47;;;17.04
29701;BMP280;57917;51.380;-0.176;2022-07-04T23:58:11;102011.19;;;16.94
